createdAt,value
2022-11-15T00:00:40.674Z,56.96
2022-11-15T00:01:34.311Z,56.07
2022-11-15T00:02:27.830Z,56.67
2022-11-15T00:03:21.379Z,56.29
2022-11-15T00:04:14.930Z,57.07
2022-11-15T00:05:08.480Z,56.59
2022-11-15T00:06:02.125Z,56.49
2022-11-15T00:06:55.638Z,56.87
2022-11-15T00:07:55.809Z,56.89
2022-11-15T00:08:42.695Z,56.49
2022-11-15T00:09:36.228Z,56.67
2022-11-15T00:10:29.774Z,56.49
2022-11-15T00:11:23.345Z,56.59
2022-11-15T00:12:16.863Z,56.89
2022-11-15T00:13:10.415Z,56.79
2022-11-15T00:14:04.013Z,56.59
2022-11-15T00:14:57.547Z,56.49
2022-11-15T00:15:51.082Z,56.89
2022-11-15T00:16:54.905Z,56.39
2022-11-15T00:17:48.433Z,56.39
2022-11-15T00:18:46.398Z,56.70
2022-11-15T00:19:35.523Z,56.70
2022-11-15T00:20:29.074Z,56.39
2022-11-15T00:21:22.617Z,56.59
2022-11-15T00:22:16.159Z,56.89
2022-11-15T00:23:09.727Z,56.49
2022-11-15T00:24:03.260Z,56.59
2022-11-15T00:24:56.798Z,56.99
2022-11-15T00:25:50.348Z,56.70
2022-11-15T00:26:43.897Z,56.49
2022-11-15T00:27:37.474Z,56.99
2022-11-15T00:28:31.010Z,56.79
2022-11-15T00:29:24.561Z,56.49
2022-11-15T00:30:18.119Z,56.49
2022-11-15T00:31:11.675Z,56.59
2022-11-15T00:32:05.220Z,56.49
2022-11-15T00:33:09.025Z,56.70
2022-11-15T00:34:12.834Z,56.49
2022-11-15T00:35:06.379Z,56.70
2022-11-15T00:36:10.186Z,56.49
2022-11-15T00:37:03.739Z,56.49
2022-11-15T00:37:57.279Z,56.79
2022-11-15T00:38:50.892Z,56.49
2022-11-15T00:39:44.384Z,56.89
2022-11-15T00:40:28.084Z,56.29
2022-11-15T00:41:21.634Z,56.59
2022-11-15T00:42:15.181Z,56.79
2022-11-15T00:43:08.715Z,56.99
2022-11-15T00:44:02.267Z,56.59
2022-11-15T00:44:55.842Z,56.72
2022-11-15T00:45:39.486Z,56.49
2022-11-15T00:46:23.185Z,56.59
2022-11-15T00:47:16.729Z,56.79
2022-11-15T00:48:10.284Z,56.99
2022-11-15T00:49:03.887Z,56.59
2022-11-15T00:49:57.401Z,56.39
2022-11-15T00:50:41.087Z,56.89
2022-11-15T00:51:34.628Z,56.79
2022-11-15T00:52:28.162Z,56.29
2022-11-15T00:53:21.691Z,56.49
2022-11-15T00:54:15.240Z,56.79
2022-11-15T00:55:08.772Z,56.29
2022-11-15T00:56:12.577Z,56.49
2022-11-15T00:57:06.132Z,56.70
2022-11-15T00:57:49.812Z,56.99
2022-11-15T00:58:43.368Z,56.59
2022-11-15T00:59:36.925Z,56.59
2022-11-15T01:00:30.544Z,56.49
2022-11-15T01:01:24.090Z,56.99
2022-11-15T01:02:17.570Z,57.02
2022-11-15T01:03:11.099Z,56.32
2022-11-15T01:04:04.667Z,56.89
2022-11-15T01:04:48.336Z,56.59
2022-11-15T01:05:41.904Z,56.29
2022-11-15T01:06:25.564Z,56.59
2022-11-15T01:07:19.152Z,56.59
2022-11-15T01:08:12.659Z,56.39
2022-11-15T01:09:06.232Z,56.62
2022-11-15T01:09:59.788Z,56.59
2022-11-15T01:10:53.324Z,56.49
2022-11-15T01:11:57.130Z,56.62
2022-11-15T01:12:50.663Z,56.49
2022-11-15T01:13:44.242Z,56.29
2022-11-15T01:14:37.738Z,56.62
2022-11-15T01:15:31.327Z,56.62
2022-11-15T01:16:24.826Z,56.70
2022-11-15T01:17:18.376Z,56.99
2022-11-15T01:18:11.941Z,56.59
2022-11-15T01:19:05.483Z,56.62
2022-11-15T01:19:59.040Z,56.52
2022-11-15T01:20:52.614Z,56.82
2022-11-15T01:21:46.170Z,57.02
2022-11-15T01:22:39.702Z,57.02
2022-11-15T01:23:33.703Z,56.62
2022-11-15T01:24:16.925Z,56.72
2022-11-15T01:25:10.525Z,56.42
2022-11-15T01:26:04.023Z,56.32
2022-11-15T01:26:57.581Z,56.62
2022-11-15T01:27:51.128Z,56.32
2022-11-15T01:28:44.673Z,56.89
2022-11-15T01:29:38.243Z,56.92
2022-11-15T01:30:31.784Z,56.42
2022-11-15T01:31:25.358Z,56.72
2022-11-15T01:32:18.877Z,56.62
2022-11-15T01:33:12.428Z,56.62
2022-11-15T01:34:05.961Z,57.02
2022-11-15T01:34:59.514Z,56.62
2022-11-15T01:35:53.075Z,56.92
2022-11-15T01:36:46.606Z,56.62
2022-11-15T01:37:40.171Z,56.72
2022-11-15T01:38:33.697Z,56.52
2022-11-15T01:39:27.243Z,56.62
2022-11-15T01:40:20.812Z,56.32
2022-11-15T01:41:14.372Z,56.32
2022-11-15T01:42:07.933Z,56.52
2022-11-15T01:43:01.482Z,56.72
2022-11-15T01:43:45.151Z,56.92
2022-11-15T01:44:38.695Z,56.32
2022-11-15T01:45:32.224Z,56.62
2022-11-15T01:46:15.892Z,56.52
2022-11-15T01:47:09.431Z,56.32
2022-11-15T01:48:02.999Z,56.52
2022-11-15T01:48:56.588Z,56.62
2022-11-15T01:49:50.075Z,56.32
2022-11-15T01:50:43.624Z,56.42
2022-11-15T01:51:27.278Z,56.52
2022-11-15T01:52:20.826Z,56.22
2022-11-15T01:53:14.376Z,56.32
2022-11-15T01:54:07.916Z,56.82
2022-11-15T01:55:01.475Z,56.72
2022-11-15T01:55:55.036Z,56.22
2022-11-15T01:56:48.561Z,56.12
2022-11-15T01:57:42.122Z,56.52
2022-11-15T01:58:35.690Z,56.22
2022-11-15T01:59:29.241Z,56.32
2022-11-15T02:00:22.806Z,56.82
2022-11-15T02:01:16.448Z,57.42
2022-11-15T02:02:09.905Z,57.42
2022-11-15T02:03:03.457Z,57.32
2022-11-15T02:03:47.145Z,57.12
2022-11-15T02:04:40.721Z,56.72
2022-11-15T02:05:34.258Z,57.82
2022-11-15T02:06:27.811Z,57.52
2022-11-15T02:07:21.400Z,57.12
2022-11-15T02:08:14.908Z,57.52
2022-11-15T02:09:08.493Z,56.92
2022-11-15T02:10:02.104Z,57.02
2022-11-15T02:10:55.593Z,57.52
2022-11-15T02:11:49.162Z,57.02
2022-11-15T02:12:42.697Z,57.22
2022-11-15T02:13:36.234Z,56.92
2022-11-15T02:14:19.909Z,56.92
2022-11-15T02:15:13.482Z,57.02
2022-11-15T02:16:07.011Z,57.02
2022-11-15T02:17:00.565Z,56.82
2022-11-15T02:17:54.148Z,57.22
2022-11-15T02:18:47.707Z,56.82
2022-11-15T02:19:41.258Z,57.02
2022-11-15T02:20:34.823Z,56.92
2022-11-15T02:21:28.375Z,57.02
2022-11-15T02:22:21.917Z,56.82
2022-11-15T02:23:15.482Z,57.12
2022-11-15T02:24:09.009Z,57.42
2022-11-15T02:25:02.554Z,57.12
2022-11-15T02:25:56.115Z,56.82
2022-11-15T02:26:49.643Z,56.92
2022-11-15T02:27:43.205Z,57.12
2022-11-15T02:28:36.751Z,57.12
2022-11-15T02:29:30.297Z,57.02
2022-11-15T02:30:23.864Z,57.02
2022-11-15T02:31:17.451Z,56.82
2022-11-15T02:32:10.999Z,57.12
2022-11-15T02:33:04.538Z,56.92
2022-11-15T02:33:58.095Z,57.22
2022-11-15T02:34:41.773Z,57.22
2022-11-15T02:35:35.949Z,57.02
2022-11-15T02:36:19.594Z,57.12
2022-11-15T02:37:13.153Z,57.32
2022-11-15T02:38:06.694Z,57.32
2022-11-15T02:39:00.245Z,57.22
2022-11-15T02:39:53.801Z,57.12
2022-11-15T02:40:47.351Z,57.22
2022-11-15T02:41:31.032Z,57.22
2022-11-15T02:42:24.593Z,56.92
2022-11-15T02:43:19.170Z,57.22
2022-11-15T02:44:12.738Z,57.22
2022-11-15T02:45:06.269Z,56.92
2022-11-15T02:45:59.848Z,57.02
2022-11-15T02:46:53.397Z,57.42
2022-11-15T02:47:57.207Z,57.02
2022-11-15T02:48:50.757Z,57.02
2022-11-15T02:49:44.296Z,57.02
2022-11-15T02:50:37.859Z,56.92
2022-11-15T02:51:31.408Z,57.32
2022-11-15T02:52:24.969Z,57.02
2022-11-15T02:53:18.534Z,57.02
2022-11-15T02:54:12.099Z,57.05
2022-11-15T02:55:05.639Z,56.92
2022-11-15T02:55:59.192Z,57.32
2022-11-15T02:56:52.732Z,57.02
2022-11-15T02:57:46.274Z,57.22
2022-11-15T02:58:39.859Z,57.52
2022-11-15T02:59:33.399Z,56.92
2022-11-15T03:00:27.002Z,57.12
2022-11-15T03:01:30.790Z,56.92
2022-11-15T03:02:24.327Z,56.72
2022-11-15T03:03:17.924Z,57.22
2022-11-15T03:04:11.453Z,57.02
2022-11-15T03:05:04.999Z,57.02
2022-11-15T03:05:58.555Z,57.22
2022-11-15T03:06:52.182Z,57.12
2022-11-15T03:07:45.694Z,57.02
2022-11-15T03:08:39.263Z,57.42
2022-11-15T03:09:32.826Z,57.02
2022-11-15T03:10:26.400Z,57.22
2022-11-15T03:11:19.929Z,56.92
2022-11-15T03:12:13.478Z,57.24
2022-11-15T03:13:07.041Z,56.92
2022-11-15T03:14:00.604Z,56.82
2022-11-15T03:14:54.116Z,57.22
2022-11-15T03:15:47.662Z,57.12
2022-11-15T03:16:41.212Z,57.02
2022-11-15T03:17:34.764Z,57.02
2022-11-15T03:18:28.310Z,56.82
2022-11-15T03:19:21.861Z,57.22
2022-11-15T03:20:15.429Z,56.92
2022-11-15T03:21:08.966Z,57.42
2022-11-15T03:22:02.521Z,57.02
2022-11-15T03:22:56.072Z,56.92
2022-11-15T03:23:49.617Z,57.22
2022-11-15T03:24:43.160Z,57.22
2022-11-15T03:25:36.776Z,57.02
2022-11-15T03:26:30.272Z,56.82
2022-11-15T03:27:24.408Z,57.02
2022-11-15T03:28:17.968Z,57.12
2022-11-15T03:29:11.579Z,57.12
2022-11-15T03:30:05.215Z,56.82
2022-11-15T03:30:58.687Z,57.02
2022-11-15T03:31:47.071Z,57.02
2022-11-15T03:32:35.948Z,56.72
2022-11-15T03:33:29.883Z,56.92
2022-11-15T03:34:23.059Z,57.02
2022-11-15T03:35:16.617Z,57.42
2022-11-15T03:36:10.148Z,57.02
2022-11-15T03:37:04.217Z,57.02
2022-11-15T03:37:57.824Z,57.52
2022-11-15T03:38:51.321Z,56.82
2022-11-15T03:39:44.863Z,57.72
2022-11-15T03:40:38.417Z,56.82
2022-11-15T03:41:31.960Z,56.95
2022-11-15T03:42:25.513Z,57.02
2022-11-15T03:43:19.062Z,57.02
2022-11-15T03:44:12.590Z,56.85
2022-11-15T03:45:06.169Z,57.42
2022-11-15T03:45:59.708Z,57.02
2022-11-15T03:46:53.277Z,56.72
2022-11-15T03:47:46.815Z,56.92
2022-11-15T03:48:40.376Z,56.82
2022-11-15T03:49:33.963Z,57.85
2022-11-15T03:50:27.495Z,57.02
2022-11-15T03:51:21.065Z,57.15
2022-11-15T03:52:14.600Z,57.05
2022-11-15T03:53:08.163Z,57.05
2022-11-15T03:54:01.720Z,57.15
2022-11-15T03:54:55.251Z,57.05
2022-11-15T03:55:48.827Z,56.92
2022-11-15T03:56:42.356Z,57.05
2022-11-15T03:57:35.914Z,56.92
2022-11-15T03:58:29.477Z,56.95
2022-11-15T03:59:23.068Z,57.05
2022-11-15T04:00:16.622Z,56.95
2022-11-15T04:01:10.261Z,56.95
2022-11-15T04:02:03.716Z,56.95
2022-11-15T04:02:57.264Z,57.24
2022-11-15T04:03:50.802Z,57.35
2022-11-15T04:04:44.374Z,57.15
2022-11-15T04:05:37.911Z,57.05
2022-11-15T04:06:31.486Z,57.24
2022-11-15T04:07:25.076Z,57.15
2022-11-15T04:08:18.567Z,57.05
2022-11-15T04:09:12.173Z,57.05
2022-11-15T04:10:05.734Z,56.95
2022-11-15T04:11:02.381Z,57.12
2022-11-15T04:11:52.884Z,57.75
2022-11-15T04:12:46.408Z,57.24
2022-11-15T04:13:39.951Z,57.15
2022-11-15T04:14:33.560Z,57.45
2022-11-15T04:15:27.115Z,57.55
2022-11-15T04:16:20.641Z,56.92
2022-11-15T04:17:14.193Z,57.45
2022-11-15T04:18:07.742Z,57.24
2022-11-15T04:19:01.315Z,57.45
2022-11-15T04:19:54.857Z,57.15
2022-11-15T04:20:48.417Z,57.75
2022-11-15T04:21:41.989Z,57.45
2022-11-15T04:22:35.551Z,57.35
2022-11-15T04:23:29.349Z,57.55
2022-11-15T04:24:22.912Z,57.55
2022-11-15T04:25:20.627Z,57.35
2022-11-15T04:26:10.023Z,57.55
2022-11-15T04:27:03.574Z,57.55
2022-11-15T04:27:57.127Z,56.85
2022-11-15T04:28:40.846Z,57.55
2022-11-15T04:29:34.396Z,57.45
2022-11-15T04:30:28.007Z,57.55
2022-11-15T04:31:11.686Z,57.35
2022-11-15T04:32:05.227Z,57.45
2022-11-15T04:32:58.791Z,57.45
2022-11-15T04:33:52.342Z,57.45
2022-11-15T04:34:45.935Z,57.45
2022-11-15T04:35:39.590Z,56.65
2022-11-15T04:36:33.141Z,57.45
2022-11-15T04:37:26.775Z,57.55
2022-11-15T04:38:20.312Z,57.45
2022-11-15T04:39:14.349Z,57.15
2022-11-15T04:40:07.907Z,57.35
2022-11-15T04:41:01.464Z,56.35
2022-11-15T04:41:45.144Z,56.74
2022-11-15T04:42:38.710Z,56.65
2022-11-15T04:43:32.706Z,56.45
2022-11-15T04:44:25.832Z,56.74
2022-11-15T04:45:19.408Z,56.35
2022-11-15T04:46:12.958Z,56.15
2022-11-15T04:47:06.527Z,56.32
2022-11-15T04:48:00.104Z,56.62
2022-11-15T04:48:58.218Z,56.42
2022-11-15T04:49:47.211Z,56.22
2022-11-15T04:50:40.769Z,55.92
2022-11-15T04:51:34.296Z,56.02
2022-11-15T04:52:27.875Z,56.22
2022-11-15T04:53:21.428Z,56.52
2022-11-15T04:54:15.001Z,55.92
2022-11-15T04:55:08.624Z,56.02
2022-11-15T04:56:02.106Z,55.92
2022-11-15T04:56:55.659Z,56.22
2022-11-15T04:57:49.276Z,56.12
2022-11-15T04:58:42.841Z,56.22
2022-11-15T04:59:46.674Z,56.39
2022-11-15T05:00:40.306Z,56.39
2022-11-15T05:01:33.907Z,56.49
2022-11-15T05:02:27.460Z,56.59
2022-11-15T05:03:20.992Z,55.79
2022-11-15T05:04:14.550Z,56.62
2022-11-15T05:05:14.618Z,55.89
2022-11-15T05:06:08.165Z,56.09
2022-11-15T05:07:01.801Z,56.09
2022-11-15T05:07:55.298Z,55.89
2022-11-15T05:08:48.825Z,56.09
2022-11-15T05:09:42.396Z,56.20
2022-11-15T05:10:35.923Z,56.39
2022-11-15T05:11:29.446Z,56.20
2022-11-15T05:12:22.981Z,56.20
2022-11-15T05:13:16.509Z,55.99
2022-11-15T05:14:10.029Z,56.12
2022-11-15T05:15:03.567Z,56.09
2022-11-15T05:15:57.101Z,56.39
2022-11-15T05:16:50.669Z,56.49
2022-11-15T05:17:44.215Z,56.39
2022-11-15T05:18:37.727Z,55.79
2022-11-15T05:19:31.249Z,55.79
2022-11-15T05:20:24.785Z,55.82
2022-11-15T05:21:18.314Z,55.89
2022-11-15T05:22:11.847Z,55.89
2022-11-15T05:23:05.375Z,56.39
2022-11-15T05:23:58.906Z,55.79
2022-11-15T05:24:52.435Z,55.79
2022-11-15T05:25:45.973Z,55.59
2022-11-15T05:26:39.516Z,55.89
2022-11-15T05:27:33.085Z,55.59
2022-11-15T05:28:26.618Z,55.69
2022-11-15T05:29:20.150Z,55.69
2022-11-15T05:30:13.692Z,55.89
2022-11-15T05:31:07.220Z,55.89
2022-11-15T05:32:00.745Z,55.66
2022-11-15T05:32:54.302Z,56.16
2022-11-15T05:33:47.813Z,56.07
2022-11-15T05:34:41.360Z,56.07
2022-11-15T05:35:34.925Z,56.16
2022-11-15T05:36:28.422Z,55.36
2022-11-15T05:37:21.958Z,56.16
2022-11-15T05:38:25.749Z,56.16
2022-11-15T05:39:19.307Z,56.37
2022-11-15T05:40:12.843Z,56.07
2022-11-15T05:41:06.382Z,55.99
2022-11-15T05:41:59.922Z,56.29
2022-11-15T05:42:53.459Z,56.57
2022-11-15T05:43:46.986Z,56.89
2022-11-15T05:44:40.515Z,56.57
2022-11-15T05:45:34.059Z,56.89
2022-11-15T05:46:27.588Z,56.29
2022-11-15T05:47:21.132Z,57.26
2022-11-15T05:48:14.673Z,56.99
2022-11-15T05:49:08.182Z,57.50
2022-11-15T05:50:01.714Z,56.96
2022-11-15T05:50:55.253Z,57.46
2022-11-15T05:51:48.783Z,56.96
2022-11-15T05:52:42.312Z,57.26
2022-11-15T05:53:35.856Z,56.96
2022-11-15T05:54:29.369Z,56.87
2022-11-15T05:55:22.905Z,56.96
2022-11-15T05:56:16.450Z,56.67
2022-11-15T05:57:09.987Z,56.67
2022-11-15T05:58:03.510Z,57.07
2022-11-15T05:58:59.663Z,56.87
2022-11-15T05:59:51.165Z,56.87
2022-11-15T06:00:44.687Z,56.87
2022-11-15T06:01:38.277Z,57.37
2022-11-15T06:02:21.945Z,56.96
2022-11-15T06:03:15.393Z,56.96
2022-11-15T06:04:08.941Z,57.17
2022-11-15T06:05:02.453Z,57.17
2022-11-15T06:05:55.982Z,56.96
2022-11-15T06:06:49.564Z,56.96
2022-11-15T06:07:43.048Z,56.37
2022-11-15T06:08:36.602Z,56.27
2022-11-15T06:09:30.131Z,55.77
2022-11-15T06:10:23.656Z,56.57
2022-11-15T06:11:17.199Z,56.20
2022-11-15T06:12:00.873Z,55.57
2022-11-15T06:12:54.458Z,56.07
2022-11-15T06:13:47.978Z,55.47
2022-11-15T06:14:41.503Z,55.87
2022-11-15T06:15:35.044Z,56.27
2022-11-15T06:16:28.569Z,56.27
2022-11-15T06:17:22.097Z,55.17
2022-11-15T06:18:15.654Z,55.77
2022-11-15T06:19:09.232Z,56.59
2022-11-15T06:20:02.710Z,56.16
2022-11-15T06:20:56.237Z,56.27
2022-11-15T06:21:49.765Z,55.97
2022-11-15T06:22:33.425Z,55.59
2022-11-15T06:23:26.957Z,55.59
2022-11-15T06:24:20.483Z,55.09
2022-11-15T06:25:14.023Z,55.27
2022-11-15T06:26:07.548Z,56.49
2022-11-15T06:27:01.071Z,55.27
2022-11-15T06:27:54.595Z,55.40
2022-11-15T06:28:48.129Z,55.17
2022-11-15T06:29:41.654Z,55.27
2022-11-15T06:30:35.215Z,54.60
2022-11-15T06:31:28.731Z,55.09
2022-11-15T06:32:22.260Z,55.19
2022-11-15T06:33:15.792Z,56.20
2022-11-15T06:34:09.320Z,55.66
2022-11-15T06:35:02.866Z,55.19
2022-11-15T06:35:46.541Z,55.19
2022-11-15T06:36:40.050Z,55.57
2022-11-15T06:37:33.567Z,55.27
2022-11-15T06:38:17.226Z,55.47
2022-11-15T06:39:10.754Z,56.39
2022-11-15T06:40:04.352Z,55.57
2022-11-15T06:40:57.894Z,55.77
2022-11-15T06:41:51.454Z,55.69
2022-11-15T06:42:44.982Z,56.07
2022-11-15T06:43:38.523Z,55.36
2022-11-15T06:44:22.184Z,55.87
2022-11-15T06:45:15.707Z,55.66
2022-11-15T06:46:09.243Z,54.99
2022-11-15T06:47:02.785Z,55.77
2022-11-15T06:47:56.310Z,55.66
2022-11-15T06:48:49.838Z,55.27
2022-11-15T06:49:43.362Z,54.97
2022-11-15T06:50:36.890Z,55.47
2022-11-15T06:51:30.442Z,55.17
2022-11-15T06:52:23.956Z,55.07
2022-11-15T06:53:17.501Z,54.86
2022-11-15T06:54:11.010Z,55.07
2022-11-15T06:55:04.531Z,55.27
2022-11-15T06:55:58.060Z,55.47
2022-11-15T06:56:41.743Z,55.17
2022-11-15T06:57:35.276Z,55.07
2022-11-15T06:58:28.824Z,54.86
2022-11-15T06:59:22.377Z,55.17
2022-11-15T07:00:15.923Z,55.66
2022-11-15T07:01:09.549Z,55.17
2022-11-15T07:02:03.032Z,55.47
2022-11-15T07:02:56.566Z,55.36
2022-11-15T07:03:50.101Z,55.27
2022-11-15T07:04:43.669Z,55.77
2022-11-15T07:05:37.226Z,55.47
2022-11-15T07:06:30.779Z,55.07
2022-11-15T07:07:24.447Z,54.86
2022-11-15T07:08:08.016Z,55.77
2022-11-15T07:08:51.698Z,55.66
2022-11-15T07:09:45.830Z,55.17
2022-11-15T07:10:39.394Z,55.17
2022-11-15T07:11:32.933Z,54.86
2022-11-15T07:12:26.491Z,55.57
2022-11-15T07:13:30.842Z,55.17
2022-11-15T07:14:23.840Z,55.17
2022-11-15T07:15:17.391Z,55.17
2022-11-15T07:16:10.927Z,55.36
2022-11-15T07:17:04.487Z,55.07
2022-11-15T07:17:58.034Z,55.27
2022-11-15T07:18:51.586Z,54.77
2022-11-15T07:19:45.149Z,55.27
2022-11-15T07:20:38.706Z,55.17
2022-11-15T07:21:32.260Z,55.74
2022-11-15T07:22:25.812Z,55.17
2022-11-15T07:23:19.473Z,55.57
2022-11-15T07:24:12.942Z,55.14
2022-11-15T07:24:56.616Z,55.07
2022-11-15T07:25:50.150Z,55.17
2022-11-15T07:26:43.710Z,55.36
2022-11-15T07:27:37.248Z,55.07
2022-11-15T07:28:30.809Z,55.57
2022-11-15T07:29:24.368Z,55.17
2022-11-15T07:30:17.913Z,55.07
2022-11-15T07:31:11.462Z,55.77
2022-11-15T07:32:05.035Z,55.07
2022-11-15T07:32:58.567Z,55.07
2022-11-15T07:33:52.114Z,55.07
2022-11-15T07:34:45.683Z,55.17
2022-11-15T07:35:39.243Z,55.57
2022-11-15T07:36:32.764Z,55.07
2022-11-15T07:37:26.320Z,55.07
2022-11-15T07:38:19.871Z,55.36
2022-11-15T07:39:13.452Z,54.94
2022-11-15T07:40:07.009Z,55.44
2022-11-15T07:41:00.538Z,55.04
2022-11-15T07:41:54.092Z,55.17
2022-11-15T07:42:47.650Z,54.94
2022-11-15T07:43:41.201Z,54.94
2022-11-15T07:44:34.732Z,55.66
2022-11-15T07:45:28.297Z,55.34
2022-11-15T07:46:21.902Z,55.27
2022-11-15T07:47:15.471Z,55.34
2022-11-15T07:48:08.995Z,55.14
2022-11-15T07:49:02.549Z,55.07
2022-11-15T07:49:56.097Z,55.64
2022-11-15T07:50:49.628Z,55.24
2022-11-15T07:51:43.195Z,54.86
2022-11-15T07:52:36.743Z,55.04
2022-11-15T07:53:30.692Z,55.36
2022-11-15T07:54:23.866Z,54.97
2022-11-15T07:55:17.391Z,55.54
2022-11-15T07:56:10.949Z,54.86
2022-11-15T07:57:14.770Z,55.36
2022-11-15T07:58:08.326Z,54.97
2022-11-15T07:59:01.875Z,55.17
2022-11-15T07:59:45.578Z,55.27
2022-11-15T08:00:39.133Z,54.64
2022-11-15T08:01:32.869Z,55.47
2022-11-15T08:02:30.301Z,55.66
2022-11-15T08:03:19.889Z,55.36
2022-11-15T08:04:13.458Z,55.24
2022-11-15T08:05:07.000Z,55.47
2022-11-15T08:06:00.548Z,55.27
2022-11-15T08:06:54.176Z,54.74
2022-11-15T08:07:37.896Z,54.84
2022-11-15T08:08:31.385Z,54.74
2022-11-15T08:09:24.927Z,55.04
2022-11-15T08:10:18.499Z,54.84
2022-11-15T08:11:12.035Z,55.24
2022-11-15T08:12:05.587Z,55.04
2022-11-15T08:12:59.188Z,54.54
2022-11-15T08:13:52.706Z,55.14
2022-11-15T08:14:46.251Z,55.04
2022-11-15T08:15:39.811Z,54.64
2022-11-15T08:16:33.368Z,54.74
2022-11-15T08:17:26.894Z,54.94
2022-11-15T08:18:20.433Z,54.64
2022-11-15T08:19:13.996Z,54.64
2022-11-15T08:20:07.627Z,54.84
2022-11-15T08:21:01.176Z,55.21
2022-11-15T08:21:54.738Z,54.32
2022-11-15T08:22:58.567Z,54.32
2022-11-15T08:23:42.277Z,54.71
2022-11-15T08:24:35.815Z,54.32
2022-11-15T08:25:29.392Z,54.11
2022-11-15T08:26:22.899Z,54.22
2022-11-15T08:27:16.500Z,54.11
2022-11-15T08:28:10.005Z,54.02
2022-11-15T08:29:03.565Z,54.09
2022-11-15T08:29:59.589Z,53.99
2022-11-15T08:30:50.709Z,54.22
2022-11-15T08:31:44.206Z,53.89
2022-11-15T08:32:37.773Z,53.49
2022-11-15T08:33:31.722Z,53.79
2022-11-15T08:34:24.895Z,53.99
2022-11-15T08:35:18.456Z,53.99
2022-11-15T08:36:11.987Z,53.89
2022-11-15T08:37:05.551Z,53.79
2022-11-15T08:37:59.088Z,53.79
2022-11-15T08:38:52.648Z,54.09
2022-11-15T08:39:46.190Z,53.69
2022-11-15T08:40:39.766Z,53.59
2022-11-15T08:41:33.314Z,53.79
2022-11-15T08:42:26.878Z,53.47
2022-11-15T08:43:20.433Z,53.66
2022-11-15T08:44:13.967Z,53.86
2022-11-15T08:45:07.517Z,53.06
2022-11-15T08:46:01.067Z,53.27
2022-11-15T08:46:54.634Z,53.36
2022-11-15T08:47:53.820Z,53.27
2022-11-15T08:48:41.732Z,53.66
2022-11-15T08:49:35.287Z,53.66
2022-11-15T08:50:28.825Z,53.17
2022-11-15T08:51:22.421Z,53.86
2022-11-15T08:52:15.951Z,53.56
2022-11-15T08:53:09.492Z,54.06
2022-11-15T08:54:03.025Z,53.56
2022-11-15T08:54:56.584Z,54.06
2022-11-15T08:55:50.163Z,53.66
2022-11-15T08:56:43.707Z,53.77
2022-11-15T08:57:37.281Z,53.47
2022-11-15T08:58:31.208Z,53.66
2022-11-15T08:59:24.345Z,53.86
2022-11-15T09:00:18.888Z,53.86
2022-11-15T09:01:02.482Z,54.06
2022-11-15T09:01:46.161Z,53.66
2022-11-15T09:02:39.630Z,53.86
2022-11-15T09:03:33.201Z,53.66
2022-11-15T09:04:26.750Z,53.47
2022-11-15T09:05:10.431Z,53.77
2022-11-15T09:06:03.977Z,53.56
2022-11-15T09:06:57.672Z,53.77
2022-11-15T09:07:51.083Z,53.56
2022-11-15T09:08:47.386Z,53.47
2022-11-15T09:09:28.361Z,53.47
2022-11-15T09:10:21.903Z,53.56
2022-11-15T09:11:15.477Z,53.47
2022-11-15T09:12:09.050Z,53.86
2022-11-15T09:13:02.540Z,54.16
2022-11-15T09:13:56.097Z,53.96
2022-11-15T09:14:39.788Z,53.86
2022-11-15T09:15:24.256Z,53.99
2022-11-15T09:16:07.748Z,54.06
2022-11-15T09:17:01.302Z,54.06
2022-11-15T09:17:54.840Z,53.89
2022-11-15T09:18:48.391Z,53.79
2022-11-15T09:19:41.948Z,54.09
2022-11-15T09:20:35.502Z,54.89
2022-11-15T09:21:29.028Z,54.19
2022-11-15T09:22:22.584Z,54.09
2022-11-15T09:23:16.117Z,54.49
2022-11-15T09:24:09.667Z,54.19
2022-11-15T09:25:06.203Z,54.49
2022-11-15T09:25:46.975Z,54.49
2022-11-15T09:26:40.644Z,54.69
2022-11-15T09:27:34.071Z,54.59
2022-11-15T09:28:27.641Z,54.49
2022-11-15T09:29:11.323Z,54.49
2022-11-15T09:30:04.863Z,54.57
2022-11-15T09:30:58.410Z,54.66
2022-11-15T09:31:51.947Z,53.99
2022-11-15T09:32:45.498Z,54.46
2022-11-15T09:33:39.273Z,54.06
2022-11-15T09:34:32.821Z,55.06
2022-11-15T09:35:26.375Z,54.76
2022-11-15T09:36:10.073Z,54.16
2022-11-15T09:37:03.650Z,54.14
2022-11-15T09:37:57.175Z,54.34
2022-11-15T09:38:50.724Z,53.84
2022-11-15T09:39:44.282Z,54.04
2022-11-15T09:40:38.865Z,53.64
2022-11-15T09:41:32.412Z,53.41
2022-11-15T09:42:25.974Z,54.04
2022-11-15T09:43:19.543Z,54.04
2022-11-15T09:44:03.254Z,54.11
2022-11-15T09:44:56.807Z,54.64
2022-11-15T09:45:50.385Z,54.61
2022-11-15T09:46:43.926Z,54.64
2022-11-15T09:47:37.527Z,54.81
2022-11-15T09:48:31.456Z,55.04
2022-11-15T09:49:24.644Z,54.81
2022-11-15T09:50:18.209Z,54.31
2022-11-15T09:51:11.795Z,54.11
2022-11-15T09:52:05.345Z,55.13
2022-11-15T09:52:58.882Z,54.61
2022-11-15T09:54:53.281Z,55.04
2022-11-15T09:55:39.531Z,55.54
2022-11-15T09:56:33.101Z,54.81
2022-11-15T09:57:26.648Z,54.81
2022-11-15T09:58:20.197Z,54.74
2022-11-15T09:59:13.733Z,54.64
2022-11-15T10:00:31.345Z,55.04
2022-11-15T10:01:00.900Z,55.04
2022-11-15T10:01:54.414Z,54.61
2022-11-15T10:02:47.982Z,54.71
2022-11-15T10:03:41.573Z,54.74
2022-11-15T10:04:35.112Z,55.04
2022-11-15T10:05:28.654Z,54.81
2022-11-15T10:06:22.225Z,54.61
2022-11-15T10:07:15.855Z,55.24
2022-11-15T10:08:09.382Z,55.01
2022-11-15T10:09:02.931Z,53.94
2022-11-15T10:09:56.459Z,54.91
2022-11-15T10:10:50.033Z,54.81
2022-11-15T10:11:38.556Z,54.91
2022-11-15T10:12:27.261Z,54.71
2022-11-15T10:13:20.822Z,54.74
2022-11-15T10:14:14.409Z,54.61
2022-11-15T10:15:07.962Z,54.41
2022-11-15T10:16:11.764Z,54.64
2022-11-15T10:17:05.315Z,54.61
2022-11-15T10:17:58.841Z,54.44
2022-11-15T10:18:52.385Z,54.04
2022-11-15T10:19:45.949Z,54.21
2022-11-15T10:20:39.505Z,54.21
2022-11-15T10:21:33.049Z,54.51
2022-11-15T10:22:26.619Z,54.71
2022-11-15T10:23:20.172Z,54.64
2022-11-15T10:24:13.712Z,54.41
2022-11-15T10:25:07.294Z,54.44
2022-11-15T10:26:06.391Z,54.53
2022-11-15T10:26:44.566Z,54.21
2022-11-15T10:27:38.114Z,54.44
2022-11-15T10:28:32.100Z,54.41
2022-11-15T10:29:27.108Z,54.04
2022-11-15T10:30:18.911Z,54.53
2022-11-15T10:31:14.468Z,54.74
2022-11-15T10:32:05.901Z,54.71
2022-11-15T10:32:59.442Z,54.83
2022-11-15T10:33:52.998Z,54.74
2022-11-15T10:34:46.573Z,54.71
2022-11-15T10:35:40.179Z,55.24
2022-11-15T10:36:33.635Z,54.71
2022-11-15T10:37:27.206Z,54.91
2022-11-15T10:38:20.751Z,54.81
2022-11-15T10:39:14.298Z,55.41
2022-11-15T10:40:07.837Z,55.41
2022-11-15T10:41:01.410Z,54.91
2022-11-15T10:41:54.971Z,55.54
2022-11-15T10:42:48.507Z,54.94
2022-11-15T10:43:42.055Z,55.04
2022-11-15T10:44:35.611Z,55.01
2022-11-15T10:45:19.270Z,54.91
2022-11-15T10:46:45.706Z,55.54
2022-11-15T10:47:16.663Z,55.04
2022-11-15T10:48:10.216Z,55.11
2022-11-15T10:49:03.766Z,54.94
2022-11-15T10:49:57.317Z,54.74
2022-11-15T10:50:50.870Z,54.74
2022-11-15T10:51:34.573Z,55.04
2022-11-15T10:52:18.242Z,55.04
2022-11-15T10:53:11.785Z,55.04
2022-11-15T10:54:10.635Z,54.94
2022-11-15T10:54:59.054Z,54.91
2022-11-15T10:55:52.621Z,54.94
2022-11-15T10:56:36.295Z,54.94
2022-11-15T10:57:29.856Z,55.04
2022-11-15T10:58:23.400Z,55.01
2022-11-15T10:59:07.059Z,54.61
2022-11-15T11:00:00.632Z,54.81
2022-11-15T11:00:54.235Z,55.33
2022-11-15T11:01:47.786Z,54.61
2022-11-15T11:02:41.251Z,54.61
2022-11-15T11:03:34.807Z,55.01
2022-11-15T11:04:28.390Z,55.13
2022-11-15T11:05:21.919Z,54.83
2022-11-15T11:06:15.467Z,54.74
2022-11-15T11:07:09.057Z,55.33
2022-11-15T11:08:02.575Z,54.51
2022-11-15T11:08:56.103Z,55.04
2022-11-15T11:09:49.674Z,54.81
2022-11-15T11:10:51.341Z,54.71
2022-11-15T11:11:36.742Z,54.51
2022-11-15T11:12:30.295Z,55.11
2022-11-15T11:13:23.838Z,54.71
2022-11-15T11:14:17.394Z,55.01
2022-11-15T11:15:10.982Z,54.61
2022-11-15T11:16:04.475Z,54.51
2022-11-15T11:16:58.043Z,54.51
2022-11-15T11:17:51.577Z,54.19
2022-11-15T11:18:45.160Z,54.01
2022-11-15T11:19:38.686Z,54.51
2022-11-15T11:20:32.232Z,54.38
2022-11-15T11:21:31.954Z,54.71
2022-11-15T11:22:19.320Z,53.49
2022-11-15T11:23:12.861Z,54.58
2022-11-15T11:24:06.467Z,54.58
2022-11-15T11:25:00.007Z,53.49